DLH17R YSSY-YMML
Flight info
| Callsign | DLH17R |
|---|---|
| Flight time | 1h 18m |
| Altitude | 38000 |
| Route | WOL H65 LEECE Q29 ML |
| Aircraft | A346/H-SDE2E3FGHIJ3J4J5M1RWXY/LB1D1 |
Departure
| Time | 2026-05-07 03:49 |
|---|---|
| Airport | Sydney Kingsford Smith International Airport (YSSY) |
Arrival
| Time | 2026-05-07 05:07 |
|---|---|
| Airport | Melbourne Airport (YMML) |
| Time | Latitude | Longitude | Altitude | Speed | Heading |
|---|---|---|---|---|---|
| 2026-05-07 03:11 | -33.93793 | 151.16965 | 38 ft | 0 kts | 254° |
| 2026-05-07 03:43 | -33.93788 | 151.16987 | 38 ft | 9 kts | 253° |
| 2026-05-07 03:44 | -33.93743 | 151.17042 | 35 ft | 7 kts | 213° |
| 2026-05-07 03:44 | -33.93712 | 151.17060 | 36 ft | 0 kts | 183° |
| 2026-05-07 03:45 | -33.93750 | 151.17058 | 36 ft | 12 kts | 176° |
| 2026-05-07 03:45 | -33.93822 | 151.17072 | 38 ft | 2 kts | 167° |
| 2026-05-07 03:45 | -33.93873 | 151.17084 | 38 ft | 16 kts | 169° |
| 2026-05-07 03:46 | -33.93979 | 151.17153 | 38 ft | 17 kts | 89° |
| 2026-05-07 03:46 | -33.93932 | 151.17390 | 35 ft | 45 kts | 74° |
| 2026-05-07 03:46 | -33.93826 | 151.17843 | 38 ft | 67 kts | 73° |
| 2026-05-07 03:46 | -33.93723 | 151.18268 | 38 ft | 34 kts | 74° |
| 2026-05-07 03:47 | -33.93658 | 151.18542 | 38 ft | 34 kts | 74° |
| 2026-05-07 03:47 | -33.93600 | 151.18788 | 38 ft | 17 kts | 74° |
| 2026-05-07 03:47 | -33.93601 | 151.18906 | 38 ft | 13 kts | 114° |
| 2026-05-07 03:47 | -33.93631 | 151.18946 | 37 ft | 6 kts | 136° |
| 2026-05-07 03:48 | -33.93723 | 151.18961 | 33 ft | 23 kts | 202° |
| 2026-05-07 03:48 | -33.93811 | 151.18724 | 34 ft | 59 kts | 255° |
| 2026-05-07 03:48 | -33.93980 | 151.18011 | 37 ft | 120 kts | 254° |
| 2026-05-07 03:48 | -33.94241 | 151.16887 | 251 ft | 151 kts | 254° |
| 2026-05-07 03:49 | -33.94521 | 151.15619 | 850 ft | 161 kts | 254° |
| 2026-05-07 03:49 | -33.94819 | 151.14317 | 1721 ft | 163 kts | 255° |
| 2026-05-07 03:49 | -33.95125 | 151.12984 | 2400 ft | 171 kts | 252° |
| 2026-05-07 03:49 | -33.95465 | 151.11579 | 3023 ft | 178 kts | 253° |
| 2026-05-07 03:50 | -33.95807 | 151.10100 | 3622 ft | 188 kts | 253° |
| 2026-05-07 03:50 | -33.96163 | 151.08509 | 4033 ft | 209 kts | 254° |
| 2026-05-07 03:50 | -33.96545 | 151.06750 | 4551 ft | 224 kts | 254° |
| 2026-05-07 03:50 | -33.96950 | 151.04907 | 4959 ft | 229 kts | 253° |
| 2026-05-07 03:51 | -33.97378 | 151.03049 | 4982 ft | 231 kts | 252° |
| 2026-05-07 03:51 | -33.97799 | 151.01189 | 4986 ft | 229 kts | 252° |
| 2026-05-07 03:51 | -33.98212 | 150.99327 | 4995 ft | 228 kts | 252° |
| 2026-05-07 03:51 | -33.98706 | 150.97500 | 4990 ft | 233 kts | 239° |
| 2026-05-07 03:52 | -33.99918 | 150.96146 | 5367 ft | 251 kts | 210° |
| 2026-05-07 03:52 | -34.01585 | 150.95510 | 6579 ft | 249 kts | 198° |
| 2026-05-07 03:52 | -34.03234 | 150.95038 | 7897 ft | 239 kts | 199° |
| 2026-05-07 03:52 | -34.04852 | 150.94560 | 8967 ft | 241 kts | 200° |
| 2026-05-07 03:53 | -34.06504 | 150.94060 | 9878 ft | 246 kts | 199° |
| 2026-05-07 03:53 | -34.08190 | 150.93545 | 10657 ft | 255 kts | 199° |
| 2026-05-07 03:53 | -34.09969 | 150.93006 | 11175 ft | 272 kts | 199° |
| 2026-05-07 03:53 | -34.11865 | 150.92432 | 11629 ft | 290 kts | 198° |
| 2026-05-07 03:54 | -34.13891 | 150.91820 | 12069 ft | 309 kts | 198° |
| 2026-05-07 03:54 | -34.16035 | 150.91172 | 12499 ft | 327 kts | 198° |
| 2026-05-07 03:54 | -34.18267 | 150.90500 | 12987 ft | 341 kts | 198° |
| 2026-05-07 03:54 | -34.20591 | 150.89803 | 13830 ft | 346 kts | 198° |
| 2026-05-07 03:55 | -34.22941 | 150.89099 | 14637 ft | 350 kts | 198° |
| 2026-05-07 03:55 | -34.25321 | 150.88381 | 15362 ft | 356 kts | 199° |
| 2026-05-07 03:55 | -34.27749 | 150.87643 | 16094 ft | 362 kts | 198° |
| 2026-05-07 03:55 | -34.30209 | 150.86884 | 16862 ft | 366 kts | 198° |
| 2026-05-07 03:56 | -34.32691 | 150.86128 | 17636 ft | 370 kts | 198° |
| 2026-05-07 03:56 | -34.35208 | 150.85365 | 18353 ft | 376 kts | 198° |
| 2026-05-07 03:56 | -34.37763 | 150.84593 | 18949 ft | 382 kts | 199° |
| 2026-05-07 03:56 | -34.40330 | 150.83817 | 19478 ft | 388 kts | 199° |
| 2026-05-07 03:57 | -34.42977 | 150.83015 | 20016 ft | 395 kts | 199° |
| 2026-05-07 03:57 | -34.45654 | 150.82201 | 20629 ft | 400 kts | 200° |
| 2026-05-07 03:57 | -34.48407 | 150.81363 | 21213 ft | 406 kts | 200° |
| 2026-05-07 03:57 | -34.51134 | 150.80519 | 21784 ft | 412 kts | 199° |
| 2026-05-07 03:58 | -34.53881 | 150.79505 | 22345 ft | 411 kts | 209° |
| 2026-05-07 03:58 | -34.56290 | 150.77693 | 22916 ft | 406 kts | 224° |
| 2026-05-07 03:58 | -34.58197 | 150.75194 | 23505 ft | 402 kts | 237° |
| 2026-05-07 03:58 | -34.59861 | 150.72439 | 24043 ft | 405 kts | 237° |
| 2026-05-07 03:59 | -34.61518 | 150.69669 | 24599 ft | 407 kts | 237° |
| 2026-05-07 03:59 | -34.63193 | 150.66872 | 25069 ft | 411 kts | 237° |
| 2026-05-07 03:59 | -34.64888 | 150.64045 | 25498 ft | 416 kts | 237° |
| 2026-05-07 03:59 | -34.66607 | 150.61180 | 25945 ft | 421 kts | 237° |
| 2026-05-07 04:00 | -34.68343 | 150.58287 | 26400 ft | 425 kts | 237° |
| 2026-05-07 04:00 | -34.70064 | 150.55420 | 26876 ft | 428 kts | 237° |
| 2026-05-07 04:00 | -34.71854 | 150.52437 | 27325 ft | 432 kts | 237° |
| 2026-05-07 04:00 | -34.73631 | 150.49473 | 27800 ft | 436 kts | 237° |
| 2026-05-07 04:01 | -34.75405 | 150.46511 | 28253 ft | 439 kts | 237° |
| 2026-05-07 04:01 | -34.77222 | 150.43468 | 28904 ft | 437 kts | 237° |
| 2026-05-07 04:01 | -34.78980 | 150.40537 | 29767 ft | 432 kts | 237° |
| 2026-05-07 04:01 | -34.80748 | 150.37592 | 30478 ft | 429 kts | 237° |
| 2026-05-07 04:02 | -34.82511 | 150.34645 | 30977 ft | 431 kts | 237° |
| 2026-05-07 04:02 | -34.84283 | 150.31679 | 31348 ft | 434 kts | 237° |
| 2026-05-07 04:02 | -34.86062 | 150.28697 | 31791 ft | 435 kts | 237° |
| 2026-05-07 04:02 | -34.87846 | 150.25707 | 32299 ft | 435 kts | 237° |
| 2026-05-07 04:03 | -34.89621 | 150.22727 | 32839 ft | 434 kts | 237° |
| 2026-05-07 04:03 | -34.91398 | 150.19740 | 33320 ft | 434 kts | 238° |
| 2026-05-07 04:03 | -34.93170 | 150.16756 | 33758 ft | 434 kts | 237° |
| 2026-05-07 04:03 | -34.94931 | 150.13777 | 34201 ft | 433 kts | 237° |
| 2026-05-07 04:04 | -34.96696 | 150.10801 | 34625 ft | 430 kts | 237° |
| 2026-05-07 04:04 | -34.98423 | 150.07880 | 35082 ft | 429 kts | 237° |
| 2026-05-07 04:04 | -35.00165 | 150.04938 | 35444 ft | 428 kts | 237° |
| 2026-05-07 04:04 | -35.01913 | 150.01988 | 35786 ft | 427 kts | 237° |
| 2026-05-07 04:05 | -35.03658 | 149.99039 | 36140 ft | 426 kts | 237° |
| 2026-05-07 04:05 | -35.05390 | 149.96107 | 36485 ft | 425 kts | 237° |
| 2026-05-07 04:05 | -35.07119 | 149.93183 | 36780 ft | 425 kts | 238° |
| 2026-05-07 04:05 | -35.08849 | 149.90251 | 37025 ft | 426 kts | 238° |
| 2026-05-07 04:06 | -35.10581 | 149.87312 | 37253 ft | 426 kts | 237° |
| 2026-05-07 04:06 | -35.12306 | 149.84381 | 37602 ft | 425 kts | 237° |
| 2026-05-07 04:06 | -35.14028 | 149.81452 | 37860 ft | 426 kts | 237° |
| 2026-05-07 04:06 | -35.15768 | 149.78493 | 38007 ft | 429 kts | 238° |
| 2026-05-07 04:07 | -35.17492 | 149.75558 | 38040 ft | 430 kts | 238° |
| 2026-05-07 04:07 | -35.20984 | 149.69605 | 38050 ft | 431 kts | 238° |
| 2026-05-07 04:08 | -35.24479 | 149.63635 | 38049 ft | 431 kts | 238° |
| 2026-05-07 04:08 | -35.27972 | 149.57653 | 38074 ft | 431 kts | 237° |
| 2026-05-07 04:09 | -35.31473 | 149.51650 | 38072 ft | 433 kts | 237° |
| 2026-05-07 04:09 | -35.34955 | 149.45678 | 38078 ft | 433 kts | 237° |
| 2026-05-07 04:10 | -35.38460 | 149.39653 | 38079 ft | 433 kts | 237° |
| 2026-05-07 04:10 | -35.41958 | 149.33628 | 38116 ft | 433 kts | 237° |
| 2026-05-07 04:11 | -35.45465 | 149.27568 | 38082 ft | 436 kts | 237° |
| 2026-05-07 04:11 | -35.48981 | 149.21495 | 38058 ft | 437 kts | 237° |
| 2026-05-07 04:12 | -35.52476 | 149.15445 | 38066 ft | 437 kts | 237° |
| 2026-05-07 04:12 | -35.55989 | 149.09350 | 38064 ft | 436 kts | 237° |
| 2026-05-07 04:13 | -35.59504 | 149.03235 | 38072 ft | 438 kts | 236° |
| 2026-05-07 04:13 | -35.63005 | 148.97139 | 38081 ft | 436 kts | 236° |
| 2026-05-07 04:14 | -35.66509 | 148.91035 | 38101 ft | 436 kts | 236° |
| 2026-05-07 04:14 | -35.70004 | 148.84930 | 38102 ft | 436 kts | 236° |
| 2026-05-07 04:15 | -35.73495 | 148.78810 | 38119 ft | 439 kts | 236° |
| 2026-05-07 04:15 | -35.77010 | 148.72649 | 38093 ft | 437 kts | 236° |
| 2026-05-07 04:16 | -35.80496 | 148.66532 | 38119 ft | 435 kts | 236° |
| 2026-05-07 04:16 | -35.83955 | 148.60446 | 38124 ft | 435 kts | 236° |
| 2026-05-07 04:17 | -35.87430 | 148.54305 | 38146 ft | 437 kts | 235° |
| 2026-05-07 04:17 | -35.90915 | 148.48148 | 38135 ft | 438 kts | 235° |
| 2026-05-07 04:18 | -35.94376 | 148.42012 | 38142 ft | 433 kts | 235° |
| 2026-05-07 04:18 | -35.97815 | 148.35896 | 38169 ft | 432 kts | 235° |
| 2026-05-07 04:19 | -36.01224 | 148.29812 | 38155 ft | 433 kts | 235° |
| 2026-05-07 04:19 | -36.04662 | 148.23674 | 38162 ft | 434 kts | 235° |
| 2026-05-07 04:20 | -36.08095 | 148.17531 | 38147 ft | 433 kts | 235° |
| 2026-05-07 04:20 | -36.11517 | 148.11400 | 38165 ft | 431 kts | 234° |
| 2026-05-07 04:21 | -36.16067 | 148.03272 | 38164 ft | 431 kts | 234° |
| 2026-05-07 04:21 | -36.19480 | 147.97163 | 38162 ft | 431 kts | 234° |
| 2026-05-07 04:22 | -36.22888 | 147.91049 | 38145 ft | 430 kts | 234° |
| 2026-05-07 04:22 | -36.26266 | 147.84975 | 38161 ft | 426 kts | 234° |
| 2026-05-07 04:23 | -36.29628 | 147.78914 | 38150 ft | 425 kts | 234° |
| 2026-05-07 04:23 | -36.32958 | 147.72909 | 38159 ft | 425 kts | 234° |
| 2026-05-07 04:24 | -36.36311 | 147.66848 | 38165 ft | 425 kts | 234° |
| 2026-05-07 04:24 | -36.39653 | 147.60785 | 38143 ft | 425 kts | 234° |
| 2026-05-07 04:25 | -36.42990 | 147.54717 | 38161 ft | 425 kts | 234° |
| 2026-05-07 04:25 | -36.46310 | 147.48675 | 38161 ft | 425 kts | 234° |
| 2026-05-07 04:26 | -36.49646 | 147.42594 | 38161 ft | 425 kts | 234° |
| 2026-05-07 04:26 | -36.52972 | 147.36513 | 38143 ft | 424 kts | 234° |
| 2026-05-07 04:27 | -36.56279 | 147.30455 | 38162 ft | 422 kts | 234° |
| 2026-05-07 04:27 | -36.59584 | 147.24396 | 38170 ft | 422 kts | 234° |
| 2026-05-07 04:28 | -36.62887 | 147.18327 | 38170 ft | 423 kts | 234° |
| 2026-05-07 04:28 | -36.66166 | 147.12291 | 38176 ft | 423 kts | 234° |
| 2026-05-07 04:29 | -36.69463 | 147.06200 | 38163 ft | 424 kts | 233° |
| 2026-05-07 04:29 | -36.72750 | 147.00132 | 37587 ft | 421 kts | 233° |
| 2026-05-07 04:30 | -36.74398 | 146.97073 | 36683 ft | 427 kts | 232° |
| 2026-05-07 04:30 | -36.76057 | 146.93989 | 35935 ft | 428 kts | 231° |
| 2026-05-07 04:30 | -36.77694 | 146.90950 | 35311 ft | 427 kts | 230° |
| 2026-05-07 04:30 | -36.79353 | 146.87868 | 34734 ft | 425 kts | 230° |
| 2026-05-07 04:31 | -36.80996 | 146.84812 | 34145 ft | 423 kts | 229° |
| 2026-05-07 04:31 | -36.82641 | 146.81759 | 33335 ft | 423 kts | 229° |
| 2026-05-07 04:31 | -36.84289 | 146.78706 | 32606 ft | 422 kts | 229° |
| 2026-05-07 04:31 | -36.85933 | 146.75656 | 31789 ft | 423 kts | 228° |
| 2026-05-07 04:32 | -36.87580 | 146.72593 | 30991 ft | 424 kts | 228° |
| 2026-05-07 04:32 | -36.89224 | 146.69531 | 30207 ft | 425 kts | 228° |
| 2026-05-07 04:32 | -36.90877 | 146.66453 | 29270 ft | 426 kts | 228° |
| 2026-05-07 04:32 | -36.92524 | 146.63379 | 28506 ft | 424 kts | 228° |
| 2026-05-07 04:33 | -36.94140 | 146.60354 | 27818 ft | 422 kts | 228° |
| 2026-05-07 04:33 | -36.95759 | 146.57316 | 27359 ft | 414 kts | 228° |
| 2026-05-07 04:33 | -36.97340 | 146.54344 | 26937 ft | 405 kts | 228° |
| 2026-05-07 04:33 | -36.98886 | 146.51442 | 26518 ft | 398 kts | 228° |
| 2026-05-07 04:34 | -37.00411 | 146.48581 | 26093 ft | 392 kts | 228° |
| 2026-05-07 04:34 | -37.01919 | 146.45750 | 25663 ft | 387 kts | 228° |
| 2026-05-07 04:34 | -37.03407 | 146.42956 | 25220 ft | 383 kts | 227° |
| 2026-05-07 04:34 | -37.04875 | 146.40192 | 24792 ft | 378 kts | 227° |
| 2026-05-07 04:35 | -37.06326 | 146.37459 | 24379 ft | 374 kts | 227° |
| 2026-05-07 04:35 | -37.07766 | 146.34750 | 23928 ft | 371 kts | 227° |
| 2026-05-07 04:35 | -37.09190 | 146.32068 | 23460 ft | 368 kts | 227° |
| 2026-05-07 04:35 | -37.10603 | 146.29410 | 22925 ft | 364 kts | 228° |
| 2026-05-07 04:36 | -37.11996 | 146.26780 | 22525 ft | 359 kts | 228° |
| 2026-05-07 04:36 | -37.13371 | 146.24173 | 22130 ft | 356 kts | 229° |
| 2026-05-07 04:36 | -37.14711 | 146.21631 | 21704 ft | 352 kts | 228° |
| 2026-05-07 04:36 | -37.16057 | 146.19079 | 21308 ft | 349 kts | 228° |
| 2026-05-07 04:37 | -37.17392 | 146.16549 | 20906 ft | 346 kts | 228° |
| 2026-05-07 04:37 | -37.18717 | 146.14036 | 20505 ft | 344 kts | 228° |
| 2026-05-07 04:37 | -37.20036 | 146.11534 | 20100 ft | 342 kts | 228° |
| 2026-05-07 04:37 | -37.21345 | 146.09048 | 19696 ft | 339 kts | 228° |
| 2026-05-07 04:38 | -37.22642 | 146.06583 | 19292 ft | 337 kts | 228° |
| 2026-05-07 04:38 | -37.23932 | 146.04132 | 18854 ft | 335 kts | 228° |
| 2026-05-07 04:38 | -37.25214 | 146.01699 | 18454 ft | 334 kts | 228° |
| 2026-05-07 04:38 | -37.26491 | 145.99269 | 18010 ft | 333 kts | 229° |
| 2026-05-07 04:39 | -37.27763 | 145.96845 | 17573 ft | 331 kts | 229° |
| 2026-05-07 04:39 | -37.29026 | 145.94433 | 17170 ft | 328 kts | 229° |
| 2026-05-07 04:39 | -37.30259 | 145.92079 | 16770 ft | 325 kts | 229° |
| 2026-05-07 04:39 | -37.31504 | 145.89705 | 16357 ft | 323 kts | 229° |
| 2026-05-07 04:40 | -37.32746 | 145.87347 | 15924 ft | 323 kts | 229° |
| 2026-05-07 04:40 | -37.33985 | 145.84994 | 15528 ft | 321 kts | 229° |
| 2026-05-07 04:40 | -37.35212 | 145.82654 | 15113 ft | 321 kts | 229° |
| 2026-05-07 04:40 | -37.36442 | 145.80314 | 14687 ft | 319 kts | 229° |
| 2026-05-07 04:41 | -37.37665 | 145.77985 | 14263 ft | 317 kts | 229° |
| 2026-05-07 04:41 | -37.38873 | 145.75679 | 13854 ft | 314 kts | 229° |
| 2026-05-07 04:41 | -37.40073 | 145.73385 | 13430 ft | 312 kts | 230° |
| 2026-05-07 04:41 | -37.41261 | 145.71108 | 13009 ft | 310 kts | 230° |
| 2026-05-07 04:42 | -37.42406 | 145.68917 | 12617 ft | 307 kts | 230° |
| 2026-05-07 04:52 | -37.43292 | 145.67218 | 12314 ft | 307 kts | 231° |
| 2026-05-07 04:52 | -37.44275 | 145.64808 | 11901 ft | 313 kts | 242° |
| 2026-05-07 04:52 | -37.44860 | 145.62144 | 11498 ft | 319 kts | 252° |
| 2026-05-07 04:53 | -37.45032 | 145.59339 | 11091 ft | 325 kts | 261° |
| 2026-05-07 04:53 | -37.45020 | 145.56483 | 10775 ft | 321 kts | 263° |
| 2026-05-07 04:53 | -37.44975 | 145.53728 | 10675 ft | 308 kts | 263° |
| 2026-05-07 04:53 | -37.44935 | 145.51082 | 10549 ft | 297 kts | 263° |
| 2026-05-07 04:54 | -37.44900 | 145.48544 | 10450 ft | 285 kts | 262° |
| 2026-05-07 04:54 | -37.44868 | 145.46091 | 10322 ft | 274 kts | 262° |
| 2026-05-07 04:54 | -37.44840 | 145.43738 | 10238 ft | 262 kts | 262° |
| 2026-05-07 04:54 | -37.44813 | 145.41491 | 10151 ft | 254 kts | 262° |
| 2026-05-07 04:55 | -37.44789 | 145.39281 | 10064 ft | 250 kts | 262° |
| 2026-05-07 04:55 | -37.44767 | 145.37102 | 9947 ft | 249 kts | 262° |
| 2026-05-07 04:55 | -37.44745 | 145.34941 | 9605 ft | 250 kts | 262° |
| 2026-05-07 04:55 | -37.44720 | 145.32719 | 9308 ft | 248 kts | 262° |
| 2026-05-07 04:56 | -37.44694 | 145.30583 | 9022 ft | 247 kts | 262° |
| 2026-05-07 04:56 | -37.44668 | 145.28427 | 8738 ft | 245 kts | 263° |
| 2026-05-07 04:56 | -37.44639 | 145.26290 | 8454 ft | 244 kts | 263° |
| 2026-05-07 04:56 | -37.44612 | 145.24163 | 8180 ft | 242 kts | 263° |
| 2026-05-07 04:57 | -37.44584 | 145.22061 | 7911 ft | 241 kts | 263° |
| 2026-05-07 04:57 | -37.44555 | 145.19953 | 7633 ft | 240 kts | 264° |
| 2026-05-07 04:57 | -37.44527 | 145.17858 | 7355 ft | 238 kts | 264° |
| 2026-05-07 04:57 | -37.44497 | 145.15791 | 7099 ft | 234 kts | 264° |
| 2026-05-07 04:58 | -37.44468 | 145.13746 | 6847 ft | 233 kts | 264° |
| 2026-05-07 04:58 | -37.44439 | 145.11713 | 6579 ft | 231 kts | 264° |
| 2026-05-07 04:58 | -37.44410 | 145.09695 | 6306 ft | 230 kts | 265° |
| 2026-05-07 04:58 | -37.44380 | 145.07731 | 6048 ft | 226 kts | 265° |
| 2026-05-07 04:59 | -37.44348 | 145.05741 | 5786 ft | 222 kts | 265° |
| 2026-05-07 04:59 | -37.44319 | 145.03836 | 5539 ft | 218 kts | 265° |
| 2026-05-07 04:59 | -37.44289 | 145.01950 | 5282 ft | 213 kts | 265° |
| 2026-05-07 04:59 | -37.44260 | 145.00100 | 5034 ft | 209 kts | 265° |
| 2026-05-07 05:00 | -37.44232 | 144.98272 | 4778 ft | 208 kts | 265° |
| 2026-05-07 05:00 | -37.44205 | 144.96458 | 4533 ft | 206 kts | 265° |
| 2026-05-07 05:00 | -37.44236 | 144.94665 | 4297 ft | 202 kts | 261° |
| 2026-05-07 05:00 | -37.44383 | 144.92926 | 4060 ft | 199 kts | 256° |
| 2026-05-07 05:01 | -37.44612 | 144.91231 | 3843 ft | 197 kts | 255° |
| 2026-05-07 05:01 | -37.44851 | 144.89537 | 3589 ft | 194 kts | 255° |
| 2026-05-07 05:01 | -37.45089 | 144.87880 | 3388 ft | 196 kts | 255° |
| 2026-05-07 05:01 | -37.45328 | 144.86191 | 3136 ft | 196 kts | 255° |
| 2026-05-07 05:02 | -37.45562 | 144.84514 | 2995 ft | 193 kts | 255° |
| 2026-05-07 05:02 | -37.45801 | 144.82848 | 3015 ft | 193 kts | 255° |
| 2026-05-07 05:02 | -37.46311 | 144.81316 | 2995 ft | 190 kts | 226° |
| 2026-05-07 05:02 | -37.47383 | 144.80410 | 3012 ft | 186 kts | 198° |
| 2026-05-07 05:03 | -37.48622 | 144.80298 | 3024 ft | 174 kts | 180° |
| 2026-05-07 05:03 | -37.49782 | 144.80517 | 3006 ft | 166 kts | 176° |
| 2026-05-07 05:03 | -37.50915 | 144.80772 | 2991 ft | 165 kts | 176° |
| 2026-05-07 05:03 | -37.52040 | 144.81011 | 2994 ft | 163 kts | 176° |
| 2026-05-07 05:04 | -37.53164 | 144.81234 | 2949 ft | 163 kts | 177° |
| 2026-05-07 05:04 | -37.54280 | 144.81443 | 2728 ft | 163 kts | 178° |
| 2026-05-07 05:04 | -37.55401 | 144.81650 | 2510 ft | 160 kts | 178° |
| 2026-05-07 05:04 | -37.56470 | 144.81849 | 2268 ft | 150 kts | 178° |
| 2026-05-07 05:05 | -37.57481 | 144.82038 | 2052 ft | 145 kts | 178° |
| 2026-05-07 05:05 | -37.58476 | 144.82219 | 1870 ft | 144 kts | 178° |
| 2026-05-07 05:05 | -37.59471 | 144.82405 | 1683 ft | 144 kts | 179° |
| 2026-05-07 05:05 | -37.60452 | 144.82585 | 1457 ft | 144 kts | 178° |
| 2026-05-07 05:06 | -37.61438 | 144.82765 | 1283 ft | 143 kts | 178° |
| 2026-05-07 05:06 | -37.62425 | 144.82962 | 1086 ft | 143 kts | 178° |
| 2026-05-07 05:06 | -37.63408 | 144.83146 | 866 ft | 143 kts | 177° |
| 2026-05-07 05:06 | -37.64385 | 144.83330 | 687 ft | 142 kts | 180° |
| 2026-05-07 05:07 | -37.65355 | 144.83505 | 461 ft | 139 kts | 180° |
| 2026-05-07 05:07 | -37.66124 | 144.83640 | 418 ft | 75 kts | 172° |
| 2026-05-07 05:07 | -37.66409 | 144.83693 | 411 ft | 23 kts | 169° |
| 2026-05-07 05:07 | -37.66509 | 144.83785 | 409 ft | 8 kts | 102° |
| 2026-05-07 05:08 | -37.66510 | 144.83876 | 412 ft | 12 kts | 93° |
| 2026-05-07 05:08 | -37.66512 | 144.83905 | 412 ft | 0 kts | 93° |
| 2026-05-07 05:09 | -37.66513 | 144.83933 | 409 ft | 6 kts | 93° |
| 2026-05-07 05:09 | -37.66515 | 144.83983 | 412 ft | 10 kts | 93° |
| 2026-05-07 05:09 | -37.66527 | 144.84171 | 412 ft | 20 kts | 94° |
| 2026-05-07 05:10 | -37.66536 | 144.84294 | 411 ft | 22 kts | 102° |
| 2026-05-07 05:10 | -37.66651 | 144.84403 | 405 ft | 22 kts | 130° |
| 2026-05-07 05:10 | -37.66679 | 144.84504 | 403 ft | 8 kts | 122° |
| 2026-05-07 05:10 | -37.66716 | 144.84532 | 404 ft | 5 kts | 160° |
| 2026-05-07 05:11 | -37.66731 | 144.84537 | 403 ft | 3 kts | 168° |
| 2026-05-07 05:11 | -37.66746 | 144.84540 | 404 ft | 2 kts | 170° |
| 2026-05-07 05:11 | -37.66748 | 144.84541 | 404 ft | 0 kts | 170° |